sensor_id;sensor_type;location;lat;lon;timestamp;P1;durP1;ratioP1;P2;durP2;ratioP2
55647;SDS011;45266;48.756;9.246;2023-02-28T00:00:28;2.70;;;1.97;;
55647;SDS011;45266;48.756;9.246;2023-02-28T00:01:30;4.53;;;2.47;;
55647;SDS011;45266;48.756;9.246;2023-02-28T00:02:33;3.57;;;2.27;;
55647;SDS011;45266;48.756;9.246;2023-02-28T00:03:34;3.50;;;2.27;;
55647;SDS011;45266;48.756;9.246;2023-02-28T00:04:36;6.30;;;2.20;;
55647;SDS011;45266;48.756;9.246;2023-02-28T00:05:38;2.90;;;2.40;;
55647;SDS011;45266;48.756;9.246;2023-02-28T00:06:40;3.90;;;2.10;;
55647;SDS011;45266;48.756;9.246;2023-02-28T00:07:43;3.30;;;2.47;;
55647;SDS011;45266;48.756;9.246;2023-02-28T00:08:44;2.80;;;2.13;;
55647;SDS011;45266;48.756;9.246;2023-02-28T00:09:46;3.13;;;2.30;;
55647;SDS011;45266;48.756;9.246;2023-02-28T00:10:48;2.60;;;1.90;;
55647;SDS011;45266;48.756;9.246;2023-02-28T00:11:50;4.77;;;2.30;;
55647;SDS011;45266;48.756;9.246;2023-02-28T00:12:52;3.37;;;2.23;;
55647;SDS011;45266;48.756;9.246;2023-02-28T00:13:57;2.90;;;2.33;;
55647;SDS011;45266;48.756;9.246;2023-02-28T00:15:00;2.93;;;2.17;;
55647;SDS011;45266;48.756;9.246;2023-02-28T00:16:03;3.27;;;2.43;;
55647;SDS011;45266;48.756;9.246;2023-02-28T00:17:08;2.47;;;2.27;;
55647;SDS011;45266;48.756;9.246;2023-02-28T00:18:09;4.00;;;2.67;;
55647;SDS011;45266;48.756;9.246;2023-02-28T00:19:12;3.40;;;2.40;;
55647;SDS011;45266;48.756;9.246;2023-02-28T00:20:15;3.53;;;2.60;;
55647;SDS011;45266;48.756;9.246;2023-02-28T00:21:17;2.73;;;2.10;;
55647;SDS011;45266;48.756;9.246;2023-02-28T00:22:20;4.83;;;2.40;;
55647;SDS011;45266;48.756;9.246;2023-02-28T00:23:22;3.80;;;2.40;;
55647;SDS011;45266;48.756;9.246;2023-02-28T00:24:24;4.30;;;2.30;;
55647;SDS011;45266;48.756;9.246;2023-02-28T00:25:26;5.27;;;2.43;;
55647;SDS011;45266;48.756;9.246;2023-02-28T00:26:27;2.97;;;2.33;;
55647;SDS011;45266;48.756;9.246;2023-02-28T00:27:29;3.00;;;2.23;;
55647;SDS011;45266;48.756;9.246;2023-02-28T00:28:31;3.40;;;2.47;;
55647;SDS011;45266;48.756;9.246;2023-02-28T00:29:33;2.93;;;2.27;;
55647;SDS011;45266;48.756;9.246;2023-02-28T00:30:35;4.37;;;2.30;;
55647;SDS011;45266;48.756;9.246;2023-02-28T00:31:37;4.03;;;2.67;;
55647;SDS011;45266;48.756;9.246;2023-02-28T00:32:39;3.53;;;2.30;;
55647;SDS011;45266;48.756;9.246;2023-02-28T00:33:41;4.07;;;2.67;;
55647;SDS011;45266;48.756;9.246;2023-02-28T00:34:43;3.43;;;2.40;;
55647;SDS011;45266;48.756;9.246;2023-02-28T00:35:45;3.63;;;2.40;;
55647;SDS011;45266;48.756;9.246;2023-02-28T00:36:47;4.77;;;2.27;;
55647;SDS011;45266;48.756;9.246;2023-02-28T00:37:52;3.67;;;2.43;;
55647;SDS011;45266;48.756;9.246;2023-02-28T00:38:54;2.30;;;2.10;;
55647;SDS011;45266;48.756;9.246;2023-02-28T00:39:55;3.43;;;2.43;;
55647;SDS011;45266;48.756;9.246;2023-02-28T00:40:57;4.30;;;2.53;;
55647;SDS011;45266;48.756;9.246;2023-02-28T00:42:05;3.47;;;2.60;;
55647;SDS011;45266;48.756;9.246;2023-02-28T00:43:08;3.47;;;2.07;;
55647;SDS011;45266;48.756;9.246;2023-02-28T00:44:10;4.13;;;2.50;;
55647;SDS011;45266;48.756;9.246;2023-02-28T00:45:12;4.00;;;2.50;;
55647;SDS011;45266;48.756;9.246;2023-02-28T00:46:14;2.63;;;2.40;;
55647;SDS011;45266;48.756;9.246;2023-02-28T00:47:16;3.73;;;2.40;;
55647;SDS011;45266;48.756;9.246;2023-02-28T00:48:18;3.67;;;2.30;;
55647;SDS011;45266;48.756;9.246;2023-02-28T00:49:20;4.20;;;2.30;;
55647;SDS011;45266;48.756;9.246;2023-02-28T00:50:22;3.30;;;2.57;;
55647;SDS011;45266;48.756;9.246;2023-02-28T00:51:24;2.80;;;2.20;;
55647;SDS011;45266;48.756;9.246;2023-02-28T00:52:25;3.30;;;2.40;;
55647;SDS011;45266;48.756;9.246;2023-02-28T00:53:27;4.23;;;2.33;;
55647;SDS011;45266;48.756;9.246;2023-02-28T00:54:30;5.83;;;3.20;;
55647;SDS011;45266;48.756;9.246;2023-02-28T00:55:32;5.23;;;2.50;;
55647;SDS011;45266;48.756;9.246;2023-02-28T00:56:33;4.63;;;2.30;;
55647;SDS011;45266;48.756;9.246;2023-02-28T00:57:35;3.97;;;2.70;;
55647;SDS011;45266;48.756;9.246;2023-02-28T00:58:37;3.50;;;2.30;;
55647;SDS011;45266;48.756;9.246;2023-02-28T00:59:39;4.03;;;2.47;;
55647;SDS011;45266;48.756;9.246;2023-02-28T01:00:40;5.43;;;2.70;;
55647;SDS011;45266;48.756;9.246;2023-02-28T01:01:43;3.30;;;2.60;;
55647;SDS011;45266;48.756;9.246;2023-02-28T01:02:46;2.93;;;2.50;;
55647;SDS011;45266;48.756;9.246;2023-02-28T01:03:48;3.90;;;2.53;;
55647;SDS011;45266;48.756;9.246;2023-02-28T01:04:49;4.33;;;2.53;;
55647;SDS011;45266;48.756;9.246;2023-02-28T01:05:51;4.40;;;2.90;;
55647;SDS011;45266;48.756;9.246;2023-02-28T01:06:54;4.33;;;2.67;;
55647;SDS011;45266;48.756;9.246;2023-02-28T01:07:56;4.33;;;2.80;;
55647;SDS011;45266;48.756;9.246;2023-02-28T01:08:58;4.63;;;2.70;;
55647;SDS011;45266;48.756;9.246;2023-02-28T01:10:00;3.13;;;2.63;;
55647;SDS011;45266;48.756;9.246;2023-02-28T01:11:12;4.30;;;2.80;;
55647;SDS011;45266;48.756;9.246;2023-02-28T01:12:15;4.30;;;2.80;;
55647;SDS011;45266;48.756;9.246;2023-02-28T01:13:17;6.03;;;2.80;;
55647;SDS011;45266;48.756;9.246;2023-02-28T01:14:19;3.93;;;2.90;;
55647;SDS011;45266;48.756;9.246;2023-02-28T01:15:21;4.70;;;3.10;;
55647;SDS011;45266;48.756;9.246;2023-02-28T01:16:23;4.17;;;2.90;;
55647;SDS011;45266;48.756;9.246;2023-02-28T01:17:25;4.97;;;3.00;;
55647;SDS011;45266;48.756;9.246;2023-02-28T01:18:27;5.30;;;3.23;;
55647;SDS011;45266;48.756;9.246;2023-02-28T01:19:29;2.67;;;2.37;;
55647;SDS011;45266;48.756;9.246;2023-02-28T01:20:31;3.83;;;2.63;;
55647;SDS011;45266;48.756;9.246;2023-02-28T01:21:33;5.47;;;2.73;;
55647;SDS011;45266;48.756;9.246;2023-02-28T01:22:36;3.93;;;2.73;;
55647;SDS011;45266;48.756;9.246;2023-02-28T01:23:38;4.57;;;2.60;;
55647;SDS011;45266;48.756;9.246;2023-02-28T01:24:40;3.47;;;2.70;;
55647;SDS011;45266;48.756;9.246;2023-02-28T01:25:42;3.67;;;2.43;;
55647;SDS011;45266;48.756;9.246;2023-02-28T01:26:44;5.13;;;3.27;;
55647;SDS011;45266;48.756;9.246;2023-02-28T01:27:45;4.47;;;2.87;;
55647;SDS011;45266;48.756;9.246;2023-02-28T01:28:48;4.27;;;3.07;;
55647;SDS011;45266;48.756;9.246;2023-02-28T01:29:51;5.07;;;2.70;;
55647;SDS011;45266;48.756;9.246;2023-02-28T01:30:52;3.67;;;2.70;;
55647;SDS011;45266;48.756;9.246;2023-02-28T01:31:54;6.00;;;2.70;;
55647;SDS011;45266;48.756;9.246;2023-02-28T01:32:58;4.83;;;3.10;;
55647;SDS011;45266;48.756;9.246;2023-02-28T01:34:00;5.97;;;3.47;;
55647;SDS011;45266;48.756;9.246;2023-02-28T01:35:03;5.27;;;2.77;;
55647;SDS011;45266;48.756;9.246;2023-02-28T01:36:15;4.50;;;2.80;;
55647;SDS011;45266;48.756;9.246;2023-02-28T01:37:19;4.70;;;3.23;;
55647;SDS011;45266;48.756;9.246;2023-02-28T01:38:20;4.13;;;2.70;;
55647;SDS011;45266;48.756;9.246;2023-02-28T01:39:23;5.37;;;3.10;;
55647;SDS011;45266;48.756;9.246;2023-02-28T01:40:26;5.90;;;2.90;;
55647;SDS011;45266;48.756;9.246;2023-02-28T01:41:29;4.60;;;2.73;;
55647;SDS011;45266;48.756;9.246;2023-02-28T01:42:33;4.80;;;2.90;;
55647;SDS011;45266;48.756;9.246;2023-02-28T01:46:21;5.27;;;3.57;;
55647;SDS011;45266;48.756;9.246;2023-02-28T01:47:23;3.90;;;2.90;;
55647;SDS011;45266;48.756;9.246;2023-02-28T01:48:33;5.87;;;3.10;;
55647;SDS011;45266;48.756;9.246;2023-02-28T01:49:38;4.17;;;2.83;;
55647;SDS011;45266;48.756;9.246;2023-02-28T01:50:41;4.47;;;2.93;;
55647;SDS011;45266;48.756;9.246;2023-02-28T01:51:45;6.60;;;3.20;;
55647;SDS011;45266;48.756;9.246;2023-02-28T01:52:54;4.87;;;2.73;;
55647;SDS011;45266;48.756;9.246;2023-02-28T01:54:03;4.20;;;3.03;;
55647;SDS011;45266;48.756;9.246;2023-02-28T01:55:15;3.23;;;2.67;;
55647;SDS011;45266;48.756;9.246;2023-02-28T01:56:20;4.40;;;3.10;;
55647;SDS011;45266;48.756;9.246;2023-02-28T01:57:29;5.57;;;2.90;;
55647;SDS011;45266;48.756;9.246;2023-02-28T01:58:38;4.00;;;2.83;;
55647;SDS011;45266;48.756;9.246;2023-02-28T01:59:42;4.87;;;3.00;;
55647;SDS011;45266;48.756;9.246;2023-02-28T02:00:50;5.17;;;3.00;;
55647;SDS011;45266;48.756;9.246;2023-02-28T02:01:52;5.07;;;3.00;;
55647;SDS011;45266;48.756;9.246;2023-02-28T02:02:55;5.23;;;3.30;;
55647;SDS011;45266;48.756;9.246;2023-02-28T02:04:01;4.30;;;3.10;;
55647;SDS011;45266;48.756;9.246;2023-02-28T02:05:09;4.07;;;2.97;;
55647;SDS011;45266;48.756;9.246;2023-02-28T02:06:13;4.53;;;3.20;;
55647;SDS011;45266;48.756;9.246;2023-02-28T02:07:14;5.80;;;2.97;;
55647;SDS011;45266;48.756;9.246;2023-02-28T02:08:19;4.33;;;3.40;;
55647;SDS011;45266;48.756;9.246;2023-02-28T02:09:24;4.03;;;2.90;;
55647;SDS011;45266;48.756;9.246;2023-02-28T02:10:33;4.50;;;2.90;;
55647;SDS011;45266;48.756;9.246;2023-02-28T02:11:36;4.17;;;2.97;;
55647;SDS011;45266;48.756;9.246;2023-02-28T02:12:48;4.03;;;2.63;;
55647;SDS011;45266;48.756;9.246;2023-02-28T02:14:03;3.77;;;2.70;;
55647;SDS011;45266;48.756;9.246;2023-02-28T02:15:14;4.60;;;3.20;;
55647;SDS011;45266;48.756;9.246;2023-02-28T02:17:42;4.57;;;2.93;;
55647;SDS011;45266;48.756;9.246;2023-02-28T02:21:40;5.37;;;2.90;;
55647;SDS011;45266;48.756;9.246;2023-02-28T02:37:47;5.57;;;3.47;;
55647;SDS011;45266;48.756;9.246;2023-02-28T02:39:40;5.03;;;3.60;;
55647;SDS011;45266;48.756;9.246;2023-02-28T02:40:22;5.53;;;3.67;;
55647;SDS011;45266;48.756;9.246;2023-02-28T02:41:45;5.80;;;3.70;;
55647;SDS011;45266;48.756;9.246;2023-02-28T02:42:51;5.60;;;2.73;;
55647;SDS011;45266;48.756;9.246;2023-02-28T02:44:06;3.77;;;3.00;;
55647;SDS011;45266;48.756;9.246;2023-02-28T02:46:39;5.50;;;3.33;;
55647;SDS011;45266;48.756;9.246;2023-02-28T02:47:45;4.83;;;3.10;;
55647;SDS011;45266;48.756;9.246;2023-02-28T02:48:48;4.50;;;3.07;;
55647;SDS011;45266;48.756;9.246;2023-02-28T02:49:52;5.20;;;3.40;;
55647;SDS011;45266;48.756;9.246;2023-02-28T02:50:59;5.83;;;3.60;;
55647;SDS011;45266;48.756;9.246;2023-02-28T02:52:07;4.87;;;3.50;;
55647;SDS011;45266;48.756;9.246;2023-02-28T02:53:12;4.73;;;3.47;;
55647;SDS011;45266;48.756;9.246;2023-02-28T02:54:21;3.73;;;3.03;;
55647;SDS011;45266;48.756;9.246;2023-02-28T02:55:30;4.67;;;3.43;;
55647;SDS011;45266;48.756;9.246;2023-02-28T02:56:34;4.33;;;3.40;;
55647;SDS011;45266;48.756;9.246;2023-02-28T02:57:46;4.93;;;3.33;;
55647;SDS011;45266;48.756;9.246;2023-02-28T02:58:55;4.27;;;3.27;;
55647;SDS011;45266;48.756;9.246;2023-02-28T03:00:02;4.63;;;3.23;;
55647;SDS011;45266;48.756;9.246;2023-02-28T03:01:06;6.00;;;3.30;;
55647;SDS011;45266;48.756;9.246;2023-02-28T03:02:12;5.37;;;3.33;;
55647;SDS011;45266;48.756;9.246;2023-02-28T03:03:16;4.70;;;3.33;;
55647;SDS011;45266;48.756;9.246;2023-02-28T03:04:22;5.40;;;3.13;;
55647;SDS011;45266;48.756;9.246;2023-02-28T03:05:26;4.43;;;3.53;;
55647;SDS011;45266;48.756;9.246;2023-02-28T03:06:35;5.47;;;3.70;;
55647;SDS011;45266;48.756;9.246;2023-02-28T03:07:36;5.97;;;3.37;;
55647;SDS011;45266;48.756;9.246;2023-02-28T03:08:38;7.07;;;4.00;;
55647;SDS011;45266;48.756;9.246;2023-02-28T03:09:40;4.87;;;3.37;;
55647;SDS011;45266;48.756;9.246;2023-02-28T03:10:46;5.90;;;3.53;;
55647;SDS011;45266;48.756;9.246;2023-02-28T03:11:51;4.60;;;3.50;;
55647;SDS011;45266;48.756;9.246;2023-02-28T03:13:00;5.33;;;3.90;;
55647;SDS011;45266;48.756;9.246;2023-02-28T03:15:57;4.60;;;3.63;;
55647;SDS011;45266;48.756;9.246;2023-02-28T03:17:23;4.93;;;3.37;;
55647;SDS011;45266;48.756;9.246;2023-02-28T03:22:58;4.73;;;3.60;;
55647;SDS011;45266;48.756;9.246;2023-02-28T03:26:45;4.33;;;3.50;;
55647;SDS011;45266;48.756;9.246;2023-02-28T03:28:07;6.27;;;3.80;;
55647;SDS011;45266;48.756;9.246;2023-02-28T03:29:28;5.43;;;3.90;;
55647;SDS011;45266;48.756;9.246;2023-02-28T03:30:41;5.83;;;3.70;;
55647;SDS011;45266;48.756;9.246;2023-02-28T03:31:44;4.40;;;3.30;;
55647;SDS011;45266;48.756;9.246;2023-02-28T03:34:03;5.57;;;4.13;;
55647;SDS011;45266;48.756;9.246;2023-02-28T03:35:31;4.37;;;3.40;;
55647;SDS011;45266;48.756;9.246;2023-02-28T03:36:41;6.17;;;3.73;;
55647;SDS011;45266;48.756;9.246;2023-02-28T03:37:46;4.60;;;3.60;;
55647;SDS011;45266;48.756;9.246;2023-02-28T03:38:52;5.20;;;3.67;;
55647;SDS011;45266;48.756;9.246;2023-02-28T03:40:01;7.73;;;4.97;;
55647;SDS011;45266;48.756;9.246;2023-02-28T03:41:16;6.73;;;4.33;;
55647;SDS011;45266;48.756;9.246;2023-02-28T03:42:23;5.53;;;3.87;;
55647;SDS011;45266;48.756;9.246;2023-02-28T03:43:29;6.53;;;4.00;;
55647;SDS011;45266;48.756;9.246;2023-02-28T03:44:38;5.23;;;3.60;;
55647;SDS011;45266;48.756;9.246;2023-02-28T03:45:45;5.57;;;4.07;;
55647;SDS011;45266;48.756;9.246;2023-02-28T03:46:56;5.17;;;3.90;;
55647;SDS011;45266;48.756;9.246;2023-02-28T03:48:08;4.83;;;3.80;;
55647;SDS011;45266;48.756;9.246;2023-02-28T03:49:24;7.30;;;4.40;;
55647;SDS011;45266;48.756;9.246;2023-02-28T03:51:44;6.77;;;4.10;;
55647;SDS011;45266;48.756;9.246;2023-02-28T03:53:00;6.37;;;3.77;;
55647;SDS011;45266;48.756;9.246;2023-02-28T03:54:07;5.73;;;3.90;;
55647;SDS011;45266;48.756;9.246;2023-02-28T03:55:14;5.03;;;3.90;;
55647;SDS011;45266;48.756;9.246;2023-02-28T03:56:19;7.27;;;4.07;;
55647;SDS011;45266;48.756;9.246;2023-02-28T03:57:43;5.03;;;3.77;;
55647;SDS011;45266;48.756;9.246;2023-02-28T03:59:17;5.27;;;3.73;;
55647;SDS011;45266;48.756;9.246;2023-02-28T04:00:30;7.87;;;4.00;;
55647;SDS011;45266;48.756;9.246;2023-02-28T04:01:39;6.87;;;4.50;;
55647;SDS011;45266;48.756;9.246;2023-02-28T04:02:43;5.10;;;3.97;;
55647;SDS011;45266;48.756;9.246;2023-02-28T04:03:45;6.63;;;4.30;;
55647;SDS011;45266;48.756;9.246;2023-02-28T04:04:47;7.27;;;4.40;;
55647;SDS011;45266;48.756;9.246;2023-02-28T04:05:53;5.97;;;3.97;;
55647;SDS011;45266;48.756;9.246;2023-02-28T04:07:06;4.87;;;4.10;;
55647;SDS011;45266;48.756;9.246;2023-02-28T04:08:09;6.37;;;4.43;;
55647;SDS011;45266;48.756;9.246;2023-02-28T04:09:12;6.27;;;4.03;;
55647;SDS011;45266;48.756;9.246;2023-02-28T04:10:16;6.03;;;4.13;;
55647;SDS011;45266;48.756;9.246;2023-02-28T04:12:33;5.47;;;4.20;;
55647;SDS011;45266;48.756;9.246;2023-02-28T04:13:35;7.40;;;4.00;;
55647;SDS011;45266;48.756;9.246;2023-02-28T04:14:37;5.80;;;4.50;;
55647;SDS011;45266;48.756;9.246;2023-02-28T04:15:39;6.57;;;4.60;;
55647;SDS011;45266;48.756;9.246;2023-02-28T04:16:41;5.47;;;4.27;;
55647;SDS011;45266;48.756;9.246;2023-02-28T04:17:43;6.43;;;4.10;;
55647;SDS011;45266;48.756;9.246;2023-02-28T04:18:45;6.07;;;4.47;;
55647;SDS011;45266;48.756;9.246;2023-02-28T04:19:46;5.73;;;4.17;;
55647;SDS011;45266;48.756;9.246;2023-02-28T04:20:48;6.67;;;3.70;;
55647;SDS011;45266;48.756;9.246;2023-02-28T04:21:50;5.60;;;3.90;;
55647;SDS011;45266;48.756;9.246;2023-02-28T04:22:54;5.27;;;4.00;;
55647;SDS011;45266;48.756;9.246;2023-02-28T04:23:55;6.97;;;4.77;;
55647;SDS011;45266;48.756;9.246;2023-02-28T04:25:01;5.90;;;4.23;;
55647;SDS011;45266;48.756;9.246;2023-02-28T04:26:03;6.57;;;4.67;;
55647;SDS011;45266;48.756;9.246;2023-02-28T04:27:06;5.53;;;4.27;;
55647;SDS011;45266;48.756;9.246;2023-02-28T04:28:09;5.90;;;4.23;;
55647;SDS011;45266;48.756;9.246;2023-02-28T04:29:12;7.20;;;4.43;;
55647;SDS011;45266;48.756;9.246;2023-02-28T04:30:15;8.77;;;5.00;;
55647;SDS011;45266;48.756;9.246;2023-02-28T04:31:17;6.10;;;4.53;;
55647;SDS011;45266;48.756;9.246;2023-02-28T04:32:19;5.50;;;4.30;;
55647;SDS011;45266;48.756;9.246;2023-02-28T04:33:21;5.40;;;4.20;;
55647;SDS011;45266;48.756;9.246;2023-02-28T04:34:23;6.10;;;4.20;;
55647;SDS011;45266;48.756;9.246;2023-02-28T04:35:25;7.17;;;4.60;;
55647;SDS011;45266;48.756;9.246;2023-02-28T04:36:27;6.37;;;4.30;;
55647;SDS011;45266;48.756;9.246;2023-02-28T04:37:29;5.60;;;3.87;;
55647;SDS011;45266;48.756;9.246;2023-02-28T04:38:35;5.50;;;4.43;;
55647;SDS011;45266;48.756;9.246;2023-02-28T04:39:38;6.80;;;4.40;;
55647;SDS011;45266;48.756;9.246;2023-02-28T04:40:40;4.90;;;4.27;;
55647;SDS011;45266;48.756;9.246;2023-02-28T04:41:42;6.47;;;4.83;;
55647;SDS011;45266;48.756;9.246;2023-02-28T04:42:44;6.60;;;4.20;;
55647;SDS011;45266;48.756;9.246;2023-02-28T04:43:45;6.10;;;4.47;;
55647;SDS011;45266;48.756;9.246;2023-02-28T04:44:47;6.97;;;4.10;;
55647;SDS011;45266;48.756;9.246;2023-02-28T04:45:49;5.93;;;4.27;;
55647;SDS011;45266;48.756;9.246;2023-02-28T04:46:51;6.73;;;4.50;;
55647;SDS011;45266;48.756;9.246;2023-02-28T04:47:52;6.83;;;4.70;;
55647;SDS011;45266;48.756;9.246;2023-02-28T04:48:54;6.07;;;4.30;;
55647;SDS011;45266;48.756;9.246;2023-02-28T04:49:56;5.43;;;4.27;;
55647;SDS011;45266;48.756;9.246;2023-02-28T04:51:08;6.43;;;4.47;;
55647;SDS011;45266;48.756;9.246;2023-02-28T04:52:12;7.70;;;4.40;;
55647;SDS011;45266;48.756;9.246;2023-02-28T04:53:14;8.47;;;4.80;;
55647;SDS011;45266;48.756;9.246;2023-02-28T04:54:16;6.67;;;4.67;;
55647;SDS011;45266;48.756;9.246;2023-02-28T04:55:19;8.20;;;4.47;;
55647;SDS011;45266;48.756;9.246;2023-02-28T04:56:21;7.07;;;4.27;;
55647;SDS011;45266;48.756;9.246;2023-02-28T04:57:23;7.33;;;4.50;;
55647;SDS011;45266;48.756;9.246;2023-02-28T04:58:25;9.00;;;4.73;;
55647;SDS011;45266;48.756;9.246;2023-02-28T04:59:27;9.27;;;4.70;;
55647;SDS011;45266;48.756;9.246;2023-02-28T05:00:29;7.60;;;5.10;;
55647;SDS011;45266;48.756;9.246;2023-02-28T05:01:31;7.17;;;5.30;;
55647;SDS011;45266;48.756;9.246;2023-02-28T05:02:34;7.63;;;4.77;;
55647;SDS011;45266;48.756;9.246;2023-02-28T05:03:36;9.80;;;5.20;;
55647;SDS011;45266;48.756;9.246;2023-02-28T05:04:38;8.57;;;4.60;;
55647;SDS011;45266;48.756;9.246;2023-02-28T05:05:40;5.07;;;4.10;;
55647;SDS011;45266;48.756;9.246;2023-02-28T05:06:42;6.07;;;4.00;;
55647;SDS011;45266;48.756;9.246;2023-02-28T05:07:44;6.93;;;5.03;;
55647;SDS011;45266;48.756;9.246;2023-02-28T05:08:46;6.10;;;4.50;;
55647;SDS011;45266;48.756;9.246;2023-02-28T05:09:48;8.13;;;5.17;;
55647;SDS011;45266;48.756;9.246;2023-02-28T05:10:50;7.63;;;4.33;;
55647;SDS011;45266;48.756;9.246;2023-02-28T05:11:52;7.00;;;5.13;;
55647;SDS011;45266;48.756;9.246;2023-02-28T05:12:54;5.97;;;4.53;;
55647;SDS011;45266;48.756;9.246;2023-02-28T05:13:55;7.53;;;4.50;;
55647;SDS011;45266;48.756;9.246;2023-02-28T05:14:57;8.50;;;5.03;;
55647;SDS011;45266;48.756;9.246;2023-02-28T05:15:59;6.77;;;5.10;;
55647;SDS011;45266;48.756;9.246;2023-02-28T05:17:01;8.10;;;5.40;;
55647;SDS011;45266;48.756;9.246;2023-02-28T05:18:03;8.20;;;5.10;;
55647;SDS011;45266;48.756;9.246;2023-02-28T05:19:05;8.87;;;5.73;;
55647;SDS011;45266;48.756;9.246;2023-02-28T05:20:07;5.67;;;4.60;;
55647;SDS011;45266;48.756;9.246;2023-02-28T05:21:26;6.87;;;4.70;;
55647;SDS011;45266;48.756;9.246;2023-02-28T05:22:28;6.70;;;5.10;;
55647;SDS011;45266;48.756;9.246;2023-02-28T05:23:30;6.40;;;4.57;;
55647;SDS011;45266;48.756;9.246;2023-02-28T05:24:32;7.40;;;4.57;;
55647;SDS011;45266;48.756;9.246;2023-02-28T05:25:34;8.20;;;5.17;;
55647;SDS011;45266;48.756;9.246;2023-02-28T05:26:36;8.63;;;4.77;;
55647;SDS011;45266;48.756;9.246;2023-02-28T05:27:40;8.67;;;5.50;;
55647;SDS011;45266;48.756;9.246;2023-02-28T05:28:41;9.93;;;5.17;;
55647;SDS011;45266;48.756;9.246;2023-02-28T05:29:43;5.73;;;4.80;;
55647;SDS011;45266;48.756;9.246;2023-02-28T05:30:46;7.50;;;5.30;;
55647;SDS011;45266;48.756;9.246;2023-02-28T05:31:48;6.83;;;4.43;;
55647;SDS011;45266;48.756;9.246;2023-02-28T05:32:51;8.97;;;5.40;;
55647;SDS011;45266;48.756;9.246;2023-02-28T05:33:53;7.37;;;5.10;;
55647;SDS011;45266;48.756;9.246;2023-02-28T05:34:54;8.17;;;5.23;;
55647;SDS011;45266;48.756;9.246;2023-02-28T05:35:56;7.23;;;5.03;;
55647;SDS011;45266;48.756;9.246;2023-02-28T05:36:58;5.90;;;4.57;;
55647;SDS011;45266;48.756;9.246;2023-02-28T05:38:00;9.17;;;5.03;;
55647;SDS011;45266;48.756;9.246;2023-02-28T05:39:02;6.87;;;5.13;;
55647;SDS011;45266;48.756;9.246;2023-02-28T05:40:05;7.53;;;5.27;;
55647;SDS011;45266;48.756;9.246;2023-02-28T05:41:08;7.23;;;4.63;;
55647;SDS011;45266;48.756;9.246;2023-02-28T05:42:10;8.50;;;5.20;;
55647;SDS011;45266;48.756;9.246;2023-02-28T05:43:12;17.17;;;6.67;;
55647;SDS011;45266;48.756;9.246;2023-02-28T05:44:14;8.10;;;5.10;;
55647;SDS011;45266;48.756;9.246;2023-02-28T05:45:16;6.67;;;5.10;;
55647;SDS011;45266;48.756;9.246;2023-02-28T05:46:18;10.07;;;5.23;;
55647;SDS011;45266;48.756;9.246;2023-02-28T05:47:20;9.17;;;5.70;;
55647;SDS011;45266;48.756;9.246;2023-02-28T05:48:22;7.00;;;5.40;;
55647;SDS011;45266;48.756;9.246;2023-02-28T05:49:24;5.90;;;4.70;;
55647;SDS011;45266;48.756;9.246;2023-02-28T05:50:25;6.17;;;4.37;;
55647;SDS011;45266;48.756;9.246;2023-02-28T05:51:27;8.03;;;5.07;;
55647;SDS011;45266;48.756;9.246;2023-02-28T05:52:30;6.93;;;5.20;;
55647;SDS011;45266;48.756;9.246;2023-02-28T05:53:32;6.57;;;4.73;;
55647;SDS011;45266;48.756;9.246;2023-02-28T05:54:34;7.43;;;5.30;;
55647;SDS011;45266;48.756;9.246;2023-02-28T05:55:36;7.43;;;5.13;;
55647;SDS011;45266;48.756;9.246;2023-02-28T05:56:38;7.47;;;5.13;;
55647;SDS011;45266;48.756;9.246;2023-02-28T05:57:41;7.40;;;5.00;;
55647;SDS011;45266;48.756;9.246;2023-02-28T05:58:43;8.27;;;5.20;;
55647;SDS011;45266;48.756;9.246;2023-02-28T05:59:45;9.20;;;5.50;;
55647;SDS011;45266;48.756;9.246;2023-02-28T06:00:47;8.87;;;5.67;;
55647;SDS011;45266;48.756;9.246;2023-02-28T06:01:49;8.03;;;5.00;;
55647;SDS011;45266;48.756;9.246;2023-02-28T06:02:51;8.27;;;4.90;;
55647;SDS011;45266;48.756;9.246;2023-02-28T06:03:58;7.53;;;5.03;;
55647;SDS011;45266;48.756;9.246;2023-02-28T06:05:01;10.00;;;6.17;;
55647;SDS011;45266;48.756;9.246;2023-02-28T06:06:02;8.57;;;5.57;;
55647;SDS011;45266;48.756;9.246;2023-02-28T06:07:04;9.43;;;5.83;;
55647;SDS011;45266;48.756;9.246;2023-02-28T06:08:06;7.80;;;5.43;;
55647;SDS011;45266;48.756;9.246;2023-02-28T06:09:08;6.93;;;5.00;;
55647;SDS011;45266;48.756;9.246;2023-02-28T06:10:10;7.30;;;5.17;;
55647;SDS011;45266;48.756;9.246;2023-02-28T06:11:13;7.73;;;5.40;;
55647;SDS011;45266;48.756;9.246;2023-02-28T06:12:15;7.10;;;5.13;;
55647;SDS011;45266;48.756;9.246;2023-02-28T06:13:17;6.23;;;5.00;;
55647;SDS011;45266;48.756;9.246;2023-02-28T06:14:19;6.80;;;4.53;;
55647;SDS011;45266;48.756;9.246;2023-02-28T06:15:21;8.60;;;5.23;;
55647;SDS011;45266;48.756;9.246;2023-02-28T06:16:23;7.87;;;5.40;;
55647;SDS011;45266;48.756;9.246;2023-02-28T06:17:26;6.73;;;5.37;;
55647;SDS011;45266;48.756;9.246;2023-02-28T06:18:28;7.83;;;5.03;;
55647;SDS011;45266;48.756;9.246;2023-02-28T06:19:29;7.23;;;4.93;;
55647;SDS011;45266;48.756;9.246;2023-02-28T06:20:31;6.60;;;5.07;;
55647;SDS011;45266;48.756;9.246;2023-02-28T06:21:33;7.93;;;5.20;;
55647;SDS011;45266;48.756;9.246;2023-02-28T06:22:35;9.50;;;5.67;;
55647;SDS011;45266;48.756;9.246;2023-02-28T06:23:38;7.27;;;5.27;;
55647;SDS011;45266;48.756;9.246;2023-02-28T06:24:40;8.60;;;5.60;;
55647;SDS011;45266;48.756;9.246;2023-02-28T06:25:44;8.03;;;5.57;;
55647;SDS011;45266;48.756;9.246;2023-02-28T06:26:46;7.43;;;5.50;;
55647;SDS011;45266;48.756;9.246;2023-02-28T06:27:48;6.93;;;5.67;;
55647;SDS011;45266;48.756;9.246;2023-02-28T06:28:50;8.23;;;6.10;;
55647;SDS011;45266;48.756;9.246;2023-02-28T06:29:55;9.13;;;6.00;;
55647;SDS011;45266;48.756;9.246;2023-02-28T06:30:57;9.77;;;6.27;;
55647;SDS011;45266;48.756;9.246;2023-02-28T06:31:59;7.93;;;6.10;;
55647;SDS011;45266;48.756;9.246;2023-02-28T06:33:00;11.37;;;6.10;;
55647;SDS011;45266;48.756;9.246;2023-02-28T06:34:02;10.33;;;6.43;;
55647;SDS011;45266;48.756;9.246;2023-02-28T06:35:04;8.67;;;5.97;;
55647;SDS011;45266;48.756;9.246;2023-02-28T06:36:07;8.80;;;5.33;;
55647;SDS011;45266;48.756;9.246;2023-02-28T06:37:09;8.77;;;5.83;;
55647;SDS011;45266;48.756;9.246;2023-02-28T06:38:12;8.70;;;5.67;;
55647;SDS011;45266;48.756;9.246;2023-02-28T06:39:14;8.80;;;5.93;;
55647;SDS011;45266;48.756;9.246;2023-02-28T06:40:16;7.03;;;5.40;;
55647;SDS011;45266;48.756;9.246;2023-02-28T06:41:17;9.13;;;6.20;;
55647;SDS011;45266;48.756;9.246;2023-02-28T06:42:19;8.60;;;5.67;;
55647;SDS011;45266;48.756;9.246;2023-02-28T06:43:21;11.93;;;6.37;;
55647;SDS011;45266;48.756;9.246;2023-02-28T06:44:24;9.77;;;5.67;;
55647;SDS011;45266;48.756;9.246;2023-02-28T06:45:26;8.20;;;5.63;;
55647;SDS011;45266;48.756;9.246;2023-02-28T06:46:27;9.33;;;5.83;;
55647;SDS011;45266;48.756;9.246;2023-02-28T06:47:30;9.67;;;6.20;;
55647;SDS011;45266;48.756;9.246;2023-02-28T06:48:32;9.50;;;6.07;;
55647;SDS011;45266;48.756;9.246;2023-02-28T06:49:36;10.67;;;6.17;;
55647;SDS011;45266;48.756;9.246;2023-02-28T06:50:38;8.27;;;5.50;;
55647;SDS011;45266;48.756;9.246;2023-02-28T06:51:40;7.93;;;5.93;;
55647;SDS011;45266;48.756;9.246;2023-02-28T06:52:46;7.17;;;5.23;;
55647;SDS011;45266;48.756;9.246;2023-02-28T06:53:48;9.77;;;5.90;;
55647;SDS011;45266;48.756;9.246;2023-02-28T06:54:50;8.03;;;6.03;;
55647;SDS011;45266;48.756;9.246;2023-02-28T06:56:04;8.83;;;5.67;;
55647;SDS011;45266;48.756;9.246;2023-02-28T06:57:07;10.13;;;6.10;;
55647;SDS011;45266;48.756;9.246;2023-02-28T06:58:09;9.93;;;6.30;;
55647;SDS011;45266;48.756;9.246;2023-02-28T06:59:20;7.37;;;5.53;;
55647;SDS011;45266;48.756;9.246;2023-02-28T07:00:22;8.47;;;5.90;;
55647;SDS011;45266;48.756;9.246;2023-02-28T07:01:23;9.27;;;6.07;;
55647;SDS011;45266;48.756;9.246;2023-02-28T07:02:26;8.27;;;5.70;;